createdAt,value
2019-06-08T00:01:02.259Z,6.30
2019-06-08T00:06:05.482Z,7.40
2019-06-08T00:11:07.996Z,6.93
2019-06-08T00:16:11.650Z,8.20
2019-06-08T00:21:15.531Z,7.20
2019-06-08T00:26:18.579Z,8.03
2019-06-08T00:31:21.995Z,8.03
2019-06-08T00:36:25.683Z,9.50
2019-06-08T00:41:28.876Z,10.13
2019-06-08T00:46:32.113Z,10.90
2019-06-08T00:51:35.335Z,11.40
2019-06-08T00:56:38.513Z,11.47
2019-06-08T01:01:41.796Z,11.40
2019-06-08T01:06:45.387Z,13.17
2019-06-08T01:11:48.633Z,10.50
2019-06-08T01:16:51.918Z,12.70
2019-06-08T01:21:55.194Z,13.70
2019-06-08T01:26:58.543Z,12.63
2019-06-08T01:32:02.146Z,11.90
2019-06-08T01:37:05.723Z,11.27
2019-06-08T01:42:09.326Z,13.43
2019-06-08T01:47:11.957Z,14.67
2019-06-08T01:52:15.317Z,13.13
2019-06-08T01:57:18.288Z,14.23
2019-06-08T02:02:21.222Z,12.53
2019-06-08T02:07:24.430Z,10.60
2019-06-08T02:12:27.011Z,10.20
2019-06-08T02:17:31.294Z,8.20
2019-06-08T02:22:34.880Z,8.23
2019-06-08T02:27:38.197Z,6.53
2019-06-08T02:32:41.085Z,8.73
2019-06-08T02:37:44.580Z,8.10
2019-06-08T02:42:47.149Z,7.20
2019-06-08T02:47:50.007Z,7.43
2019-06-08T02:52:52.916Z,7.50
2019-06-08T02:57:56.696Z,6.10
2019-06-08T03:03:00.173Z,6.27
2019-06-08T03:08:04.357Z,6.23
2019-06-08T03:13:08.924Z,5.07
2019-06-08T03:18:12.126Z,5.43
2019-06-08T03:23:15.359Z,4.57
2019-06-08T03:28:18.875Z,4.67
2019-06-08T03:33:22.256Z,4.17
2019-06-08T03:38:24.861Z,4.60
2019-06-08T03:43:28.036Z,3.10
2019-06-08T03:48:31.693Z,3.30
2019-06-08T03:53:35.739Z,2.80
2019-06-08T03:58:40.523Z,2.90
2019-06-08T04:03:46.034Z,2.27
2019-06-08T04:08:49.977Z,2.73
2019-06-08T04:13:53.480Z,2.40
2019-06-08T04:18:56.475Z,2.57
2019-06-08T04:23:59.810Z,1.93
2019-06-08T04:29:03.025Z,2.17
2019-06-08T04:34:05.932Z,1.90
2019-06-08T04:39:09.218Z,2.10
2019-06-08T04:44:12.536Z,1.80
2019-06-08T04:49:15.536Z,2.00
2019-06-08T04:54:18.529Z,1.93
2019-06-08T04:59:21.494Z,2.23
2019-06-08T05:04:24.431Z,2.30
2019-06-08T05:09:27.719Z,1.90
2019-06-08T05:14:30.923Z,2.10
2019-06-08T05:19:34.277Z,1.60
2019-06-08T05:24:39.481Z,1.40
2019-06-08T05:29:43.246Z,1.40
2019-06-08T05:34:47.589Z,1.20
2019-06-08T05:39:51.161Z,1.63
2019-06-08T05:44:54.535Z,1.70
2019-06-08T05:49:57.431Z,1.93
2019-06-08T05:55:01.009Z,1.20
2019-06-08T06:00:09.246Z,0.93
2019-06-08T06:05:11.107Z,1.40
2019-06-08T06:10:14.374Z,1.53
2019-06-08T06:15:18.619Z,1.67
2019-06-08T06:20:21.893Z,1.13
2019-06-08T06:25:25.224Z,2.03
2019-06-08T06:30:28.903Z,1.30
2019-06-08T06:35:31.751Z,1.23
2019-06-08T06:40:35.095Z,1.90
2019-06-08T06:45:38.304Z,1.40
2019-06-08T06:50:42.184Z,1.20
2019-06-08T06:55:45.468Z,1.13
2019-06-08T07:00:49.460Z,1.00
2019-06-08T07:05:54.043Z,1.30
2019-06-08T07:10:58.005Z,1.50
2019-06-08T07:16:17.159Z,1.10
2019-06-08T07:21:06.090Z,1.20
2019-06-08T07:26:09.613Z,1.20
2019-06-08T07:31:13.129Z,1.27
2019-06-08T07:36:18.045Z,1.13
2019-06-08T07:41:21.581Z,1.10
2019-06-08T07:46:24.887Z,1.33
2019-06-08T07:51:28.508Z,1.00
2019-06-08T07:56:31.807Z,1.00
2019-06-08T08:01:36.559Z,0.83
2019-06-08T08:06:39.616Z,1.23
2019-06-08T08:11:42.232Z,1.27
2019-06-08T08:16:45.467Z,0.90
2019-06-08T08:21:51.888Z,1.40
2019-06-08T08:26:55.026Z,1.50
2019-06-08T08:32:00.637Z,1.50
2019-06-08T08:37:07.126Z,1.23
2019-06-08T08:42:10.852Z,0.80
2019-06-08T08:47:14.167Z,1.00
2019-06-08T08:52:17.648Z,1.20
2019-06-08T08:57:20.664Z,1.00
2019-06-08T09:02:23.998Z,1.40
2019-06-08T09:07:27.576Z,1.37
2019-06-08T09:12:31.345Z,1.13
2019-06-08T09:17:34.752Z,2.33
2019-06-08T09:22:51.900Z,1.50
2019-06-08T09:27:41.561Z,1.37
2019-06-08T09:32:47.590Z,1.10
2019-06-08T09:37:50.393Z,1.43
2019-06-08T09:42:59.134Z,1.10
2019-06-08T09:48:01.864Z,1.50
2019-06-08T09:53:22.342Z,1.80
2019-06-08T09:58:11.861Z,1.23
2019-06-08T10:03:14.641Z,2.43
2019-06-08T10:08:20.190Z,1.43
2019-06-08T10:13:23.077Z,1.30
2019-06-08T10:18:28.360Z,1.30
2019-06-08T10:23:34.350Z,1.40
2019-06-08T10:28:38.887Z,1.30
2019-06-08T10:33:42.366Z,1.43
2019-06-08T10:38:48.027Z,2.43
2019-06-08T10:43:51.056Z,1.40
2019-06-08T10:48:53.822Z,1.60
2019-06-08T10:53:57.956Z,1.27
2019-06-08T10:59:03.500Z,1.57
2019-06-08T11:04:07.242Z,1.40
2019-06-08T11:09:14.323Z,1.20
2019-06-08T11:14:22.593Z,1.40
2019-06-08T11:19:26.528Z,1.77
2019-06-08T11:24:31.290Z,1.80
2019-06-08T11:29:34.674Z,1.47
2019-06-08T11:34:38.058Z,2.30
2019-06-08T11:39:40.291Z,1.67
2019-06-08T11:44:43.902Z,1.63
2019-06-08T11:49:49.709Z,1.63
2019-06-08T11:54:51.700Z,2.13
2019-06-08T11:59:58.350Z,1.57
2019-06-08T12:05:01.741Z,1.60
2019-06-08T12:10:06.385Z,1.47
2019-06-08T12:15:13.180Z,1.67
2019-06-08T12:20:18.035Z,1.50
2019-06-08T12:25:21.602Z,1.03
2019-06-08T12:30:26.505Z,1.47
2019-06-08T12:35:30.103Z,1.83
2019-06-08T12:40:33.433Z,1.53
2019-06-08T12:45:38.099Z,2.10
2019-06-08T12:50:40.995Z,1.70
2019-06-08T12:55:44.603Z,2.10
2019-06-08T13:00:48.271Z,1.60
2019-06-08T13:05:53.512Z,2.70
2019-06-08T13:10:57.483Z,1.77
2019-06-08T13:16:01.954Z,1.70
2019-06-08T13:21:16.673Z,1.40
2019-06-08T13:26:15.085Z,1.70
2019-06-08T13:31:21.842Z,1.70
2019-06-08T13:36:26.252Z,2.37
2019-06-08T13:41:29.995Z,1.83
2019-06-08T13:46:33.399Z,2.00
2019-06-08T13:51:38.384Z,1.70
2019-06-08T13:56:41.136Z,1.87
2019-06-08T14:01:44.711Z,2.10
2019-06-08T14:06:50.542Z,1.60
2019-06-08T14:11:53.104Z,1.97
2019-06-08T14:16:58.655Z,2.10
2019-06-08T14:22:03.356Z,1.87
2019-06-08T14:27:08.203Z,1.67
2019-06-08T14:32:11.861Z,1.90
2019-06-08T14:37:15.219Z,1.50
2019-06-08T14:42:24.661Z,1.50
2019-06-08T14:47:24.813Z,1.67
2019-06-08T14:52:30.740Z,1.80
2019-06-08T14:57:33.403Z,1.70
2019-06-08T15:02:37.941Z,2.27
2019-06-08T15:07:41.457Z,1.43
2019-06-08T15:12:44.725Z,1.73
2019-06-08T15:17:48.380Z,1.43
2019-06-08T15:22:53.319Z,1.67
2019-06-08T15:28:00.643Z,1.77
2019-06-08T15:33:02.447Z,2.23
2019-06-08T15:38:08.172Z,1.30
2019-06-08T15:43:11.453Z,2.00
2019-06-08T15:48:14.606Z,1.77
2019-06-08T15:53:18.390Z,2.23
2019-06-08T15:58:22.597Z,1.87
2019-06-08T16:03:27.323Z,1.90
2019-06-08T16:08:32.210Z,1.40
2019-06-08T16:13:35.433Z,1.67
2019-06-08T16:18:38.742Z,2.23
2019-06-08T16:23:42.136Z,1.80
2019-06-08T16:28:45.967Z,2.30
2019-06-08T16:33:49.269Z,1.77
2019-06-08T16:38:52.999Z,1.63
2019-06-08T16:43:56.679Z,2.07
2019-06-08T16:49:00.099Z,1.60
2019-06-08T16:54:03.389Z,2.37
2019-06-08T16:59:06.840Z,1.97
2019-06-08T17:04:10.819Z,1.93
2019-06-08T17:09:13.872Z,2.43
2019-06-08T17:14:17.204Z,1.47
2019-06-08T17:19:20.577Z,1.97
2019-06-08T17:24:24.253Z,1.90
2019-06-08T17:29:27.608Z,2.00
2019-06-08T17:34:34.940Z,1.77
2019-06-08T17:39:40.049Z,1.37
2019-06-08T17:44:43.874Z,1.90
2019-06-08T17:49:47.850Z,1.37
2019-06-08T17:54:51.502Z,1.60
2019-06-08T17:59:57.579Z,1.93
2019-06-08T18:05:00.670Z,1.83
2019-06-08T18:10:07.185Z,1.87
2019-06-08T18:15:10.915Z,1.80
2019-06-08T18:20:17.551Z,1.70
2019-06-08T18:25:20.034Z,1.77
2019-06-08T18:30:24.789Z,1.40
2019-06-08T18:35:28.899Z,1.00
2019-06-08T18:40:31.897Z,1.13
2019-06-08T18:45:39.517Z,0.90
2019-06-08T18:50:42.122Z,1.00
2019-06-08T18:55:46.966Z,0.80
2019-06-08T19:00:51.616Z,1.13
2019-06-08T19:05:55.517Z,1.17
2019-06-08T19:10:58.542Z,1.17
2019-06-08T19:16:02.118Z,1.00
2019-06-08T19:21:08.535Z,0.97
2019-06-08T19:26:12.183Z,1.40
2019-06-08T19:31:17.610Z,1.03
2019-06-08T19:36:20.834Z,1.43
2019-06-08T19:41:24.209Z,1.30
2019-06-08T19:46:27.582Z,1.53
2019-06-08T19:51:31.141Z,1.10
2019-06-08T19:56:33.891Z,1.40
2019-06-08T20:01:37.909Z,1.40
2019-06-08T20:06:41.328Z,1.50
2019-06-08T20:11:49.427Z,1.63
2019-06-08T20:16:50.925Z,1.80
2019-06-08T20:21:54.486Z,1.60
2019-06-08T20:26:57.870Z,1.90
2019-06-08T20:32:01.656Z,2.00
2019-06-08T20:37:07.947Z,1.67
2019-06-08T20:42:12.034Z,1.60
2019-06-08T20:47:17.894Z,1.50
2019-06-08T20:52:21.067Z,1.80
2019-06-08T20:57:24.705Z,1.73
2019-06-08T21:02:28.580Z,2.27
2019-06-08T21:07:32.240Z,2.20
2019-06-08T21:12:37.952Z,2.37
2019-06-08T21:17:41.222Z,2.00
2019-06-08T21:22:44.999Z,1.77
2019-06-08T21:27:51.086Z,2.07
2019-06-08T21:32:56.883Z,1.97
2019-06-08T21:38:01.319Z,2.67
2019-06-08T21:43:09.040Z,2.67
2019-06-08T21:48:12.358Z,2.77
2019-06-08T21:53:17.991Z,2.43
2019-06-08T21:58:21.297Z,2.60
2019-06-08T22:03:24.470Z,2.80
2019-06-08T22:08:27.060Z,2.23
2019-06-08T22:13:30.414Z,2.10
2019-06-08T22:18:33.668Z,2.20
2019-06-08T22:23:36.918Z,2.00
2019-06-08T22:28:39.775Z,2.30
2019-06-08T22:33:43.299Z,2.37
2019-06-08T22:38:47.740Z,2.20
2019-06-08T22:43:51.188Z,2.23
2019-06-08T22:48:55.342Z,2.10
2019-06-08T22:54:02.036Z,2.17
2019-06-08T22:59:06.746Z,2.10
2019-06-08T23:04:09.724Z,2.17
2019-06-08T23:09:13.372Z,1.77
2019-06-08T23:14:18.040Z,2.50
2019-06-08T23:19:20.931Z,1.70
2019-06-08T23:24:24.305Z,2.00
2019-06-08T23:29:27.426Z,2.43
2019-06-08T23:34:30.511Z,1.97
2019-06-08T23:39:33.568Z,1.73
2019-06-08T23:44:37.751Z,2.00
2019-06-08T23:49:41.475Z,1.73
2019-06-08T23:54:47.656Z,2.17
2019-06-08T23:59:50.495Z,2.13
